Time;durP1;ratioP1;P1;durP2;ratioP2;P2;SDS_P1;SDS_P2;PMS_P1;PMS_P2;Temp;Humidity;BMP_temperature;BMP_pressure;BME280_temperature;BME280_humidity;BME280_pressure;Samples;Min_cycle;Max_cycle;Signal;HPM_P1;HPM_P2
2021/12/20 16:21:11;;;;;;;;;63.25;49.25;;;;;;;;5120993;27;2249153;-75
2021/12/20 16:23:37;;;;;;;;;76.75;60.75;;;;;;;;5187600;27;23001;-82
2021/12/20 16:26:02;;;;;;;;;69.75;55.00;;;;;;;;5190894;27;13773;-84
2021/12/20 16:28:27;;;;;;;;;73.25;57.75;;;;;;;;5193021;27;13480;-89
2021/12/20 16:30:54;;;;;;;;;69.67;55.00;;;;;;;;5188562;27;13303;-86
2021/12/20 16:33:20;;;;;;;;;76.75;60.50;;;;;;;;5194070;27;14700;-83
2021/12/20 16:35:45;;;;;;;;;83.00;64.50;;;;;;;;5198448;27;13757;-74
2021/12/20 16:38:11;;;;;;;;;84.25;67.00;;;;;;;;5199383;27;12254;-82
2021/12/20 16:40:37;;;;;;;;;86.50;73.00;;;;;;;;5199558;27;11613;-81
2021/12/20 16:43:02;;;;;;;;;85.50;72.50;;;;;;;;5199304;27;11417;-75
2021/12/20 16:45:40;;;;;;;;;90.00;75.00;;;;;;;;5199320;27;11632;-76
2021/12/20 16:48:11;;;;;;;;;93.75;82.00;;;;;;;;5198493;27;13519;-78
2021/12/20 16:50:36;;;;;;;;;92.75;86.25;;;;;;;;5197212;27;11454;-77
2021/12/20 16:53:03;;;;;;;;;92.50;88.00;;;;;;;;5195848;27;12043;-87
2021/12/20 16:55:28;;;;;;;;;100.00;91.50;;;;;;;;5199576;27;10663;-77
2021/12/20 16:57:54;;;;;;;;;93.75;84.50;;;;;;;;5190692;27;24575;-78
2021/12/20 17:00:20;;;;;;;;;97.50;87.50;;;;;;;;5185364;27;25059;-75
2021/12/20 17:02:53;;;;;;;;;102.25;89.00;;;;;;;;5184520;27;11116;-79
2021/12/20 17:05:44;;;;;;;;;97.25;90.50;;;;;;;;5185978;27;24805;-83
2021/12/20 17:08:10;;;;;;;;;101.75;92.75;;;;;;;;5188152;27;24530;-84
2021/12/20 17:10:35;;;;;;;;;97.25;92.50;;;;;;;;5177379;27;23439;-87
2021/12/20 17:13:00;;;;;;;;;103.75;95.50;;;;;;;;5183097;27;23503;-83
2021/12/20 17:15:26;;;;;;;;;94.25;87.00;;;;;;;;5190828;27;24498;-76
2021/12/20 17:17:51;;;;;;;;;102.00;92.75;;;;;;;;5169185;27;25531;-77
2021/12/20 17:20:22;;;;;;;;;96.00;89.25;;;;;;;;5189783;27;23833;-76
2021/12/20 17:22:47;;;;;;;;;100.25;92.50;;;;;;;;5185180;27;23817;-77
2021/12/20 17:25:12;;;;;;;;;101.00;92.75;;;;;;;;5168840;27;25491;-75
2021/12/20 17:27:38;;;;;;;;;92.75;80.75;;;;;;;;5195426;27;10372;-75
2021/12/20 17:30:03;;;;;;;;;101.25;93.25;;;;;;;;5194794;27;23807;-76
2021/12/20 17:32:29;;;;;;;;;91.50;83.50;;;;;;;;5176530;27;23596;-74
2021/12/20 17:34:54;;;;;;;;;99.00;89.50;;;;;;;;5143545;27;25342;-76
2021/12/20 17:37:19;;;;;;;;;96.50;92.75;;;;;;;;5144063;27;12361;-76
2021/12/20 17:39:45;;;;;;;;;100.25;92.00;;;;;;;;5183286;27;13058;-77
2021/12/20 17:42:10;;;;;;;;;94.00;86.25;;;;;;;;5182834;27;23377;-76
2021/12/20 17:44:35;;;;;;;;;102.50;91.25;;;;;;;;5183179;27;24556;-75
2021/12/20 17:47:01;;;;;;;;;26.25;15.50;;;;;;;;5183124;27;24099;-79
2021/12/20 17:49:27;;;;;;;;;102.50;93.25;;;;;;;;5183934;27;25039;-79
2021/12/20 17:51:53;;;;;;;;;96.75;91.25;;;;;;;;5164462;27;23846;-77
2021/12/20 17:54:19;;;;;;;;;94.75;85.50;;;;;;;;5183372;27;23370;-77
2021/12/20 17:56:45;;;;;;;;;104.75;95.25;;;;;;;;5183727;27;12367;-77
2021/12/20 17:59:11;;;;;;;;;103.50;93.00;;;;;;;;5182915;27;23748;-78
2021/12/20 18:01:36;;;;;;;;;108.50;96.00;;;;;;;;5183431;27;10382;-79
2021/12/20 18:04:02;;;;;;;;;99.75;94.25;;;;;;;;5183439;27;9324;-76
2021/12/20 18:06:27;;;;;;;;;104.00;93.50;;;;;;;;5183922;27;24430;-76
2021/12/20 18:08:53;;;;;;;;;101.50;93.75;;;;;;;;5183691;27;23305;-75
2021/12/20 18:11:18;;;;;;;;;98.25;93.50;;;;;;;;5183537;27;10401;-74
2021/12/20 18:13:44;;;;;;;;;102.50;93.25;;;;;;;;5182838;27;23353;-74
2021/12/20 18:16:09;;;;;;;;;103.50;95.75;;;;;;;;5181671;27;24601;-75
2021/12/20 18:18:34;;;;;;;;;95.00;91.25;;;;;;;;5183451;27;9752;-76
2021/12/20 18:21:00;;;;;;;;;99.75;88.00;;;;;;;;5182233;27;23257;-74
2021/12/20 18:23:25;;;;;;;;;101.25;90.25;;;;;;;;5182472;27;12346;-75
2021/12/20 18:25:50;;;;;;;;;108.50;95.50;;;;;;;;5163279;27;23659;-75
2021/12/20 18:28:16;;;;;;;;;99.25;89.25;;;;;;;;5182986;27;10635;-74
2021/12/20 18:30:41;;;;;;;;;93.50;85.25;;;;;;;;5181465;27;23779;-74
2021/12/20 18:33:07;;;;;;;;;100.00;90.75;;;;;;;;5180806;27;10357;-75
2021/12/20 18:35:33;;;;;;;;;101.50;86.75;;;;;;;;5182571;27;23412;-74
2021/12/20 18:37:58;;;;;;;;;94.00;85.50;;;;;;;;5182786;27;12407;-75
2021/12/20 18:40:24;;;;;;;;;92.25;84.00;;;;;;;;5181178;27;24355;-75
2021/12/20 18:42:49;;;;;;;;;94.75;88.75;;;;;;;;5180420;27;11570;-77
2021/12/20 18:45:14;;;;;;;;;99.25;89.75;;;;;;;;5182438;27;11385;-83
2021/12/20 18:47:44;;;;;;;;;98.25;92.50;;;;;;;;5185488;27;9712;-79
2021/12/20 18:50:10;;;;;;;;;105.00;94.25;;;;;;;;5185512;27;12651;-84
2021/12/20 18:52:35;;;;;;;;;108.25;98.25;;;;;;;;5163685;27;24376;-85
2021/12/20 18:55:00;;;;;;;;;106.50;99.50;;;;;;;;5159620;27;13024;-87
2021/12/20 18:57:26;;;;;;;;;99.00;90.50;;;;;;;;5151226;27;12448;-83
2021/12/20 18:59:54;;;;;;;;;106.75;99.50;;;;;;;;5160578;27;23249;-78
2021/12/20 19:02:20;;;;;;;;;110.00;94.25;;;;;;;;5165364;27;24624;-80
2021/12/20 19:04:46;;;;;;;;;108.00;95.50;;;;;;;;5163097;27;12648;-85
2021/12/20 19:07:15;;;;;;;;;106.75;94.75;;;;;;;;5163676;27;12782;-83
2021/12/20 19:09:47;;;;;;;;;105.00;99.00;;;;;;;;5182831;27;10942;-83
2021/12/20 19:12:16;;;;;;;;;106.50;99.00;;;;;;;;5182464;27;10770;-83
2021/12/20 19:14:42;;;;;;;;;103.25;95.50;;;;;;;;5182816;27;9009;-81
2021/12/20 19:17:10;;;;;;;;;100.75;95.50;;;;;;;;5183196;27;10913;-82
2021/12/20 19:19:35;;;;;;;;;103.50;90.00;;;;;;;;5181298;27;8797;-82
2021/12/20 19:22:01;;;;;;;;;98.00;90.00;;;;;;;;5181852;27;10670;-83
2021/12/20 19:24:30;;;;;;;;;94.00;89.50;;;;;;;;5182364;27;17458;-82
2021/12/20 19:26:56;;;;;;;;;93.25;85.00;;;;;;;;5181324;27;12358;-83
2021/12/20 19:29:25;;;;;;;;;97.75;92.50;;;;;;;;5163438;27;14379;-82
2021/12/20 19:31:56;;;;;;;;;97.50;92.25;;;;;;;;5181974;27;12332;-82
2021/12/20 19:34:23;;;;;;;;;111.00;102.25;;;;;;;;5182262;27;8814;-82
2021/12/20 19:36:53;;;;;;;;;109.50;100.25;;;;;;;;5181380;27;24563;-84
2021/12/20 19:39:18;;;;;;;;;109.75;97.50;;;;;;;;5162428;27;14411;-82
2021/12/20 19:41:44;;;;;;;;;114.50;99.75;;;;;;;;5181332;27;23487;-82
2021/12/20 19:44:10;;;;;;;;;107.00;98.00;;;;;;;;5181468;27;13465;-82
2021/12/20 19:46:35;;;;;;;;;108.25;101.25;;;;;;;;5163228;27;12593;-81
2021/12/20 19:49:01;;;;;;;;;106.00;96.00;;;;;;;;5182116;27;23867;-79
2021/12/20 19:51:26;;;;;;;;;99.75;94.50;;;;;;;;5184010;27;23421;-77
2021/12/20 19:53:52;;;;;;;;;103.75;99.25;;;;;;;;5182110;27;24434;-78
2021/12/20 19:56:18;;;;;;;;;104.25;96.50;;;;;;;;5182379;27;23452;-81
2021/12/20 19:58:50;;;;;;;;;100.00;82.75;;;;;;;;5180772;27;10478;-79
2021/12/20 20:01:16;;;;;;;;;99.50;82.75;;;;;;;;5100846;27;14404;-77
2021/12/20 20:03:41;;;;;;;;;97.50;74.50;;;;;;;;5134839;27;19704;-73
2021/12/20 20:06:06;;;;;;;;;102.00;82.00;;;;;;;;5148938;27;12184;-84
2021/12/20 20:08:32;;;;;;;;;102.75;87.75;;;;;;;;5144319;27;23314;-84
2021/12/20 20:10:57;;;;;;;;;95.50;79.75;;;;;;;;5148856;27;10434;-85
2021/12/20 20:13:27;;;;;;;;;101.25;86.25;;;;;;;;5145551;27;23753;-84
2021/12/20 20:15:53;;;;;;;;;105.75;87.50;;;;;;;;5142719;27;26237;-84
2021/12/20 20:18:18;;;;;;;;;100.00;82.00;;;;;;;;5148435;27;10546;-84
2021/12/20 20:20:43;;;;;;;;;103.00;86.25;;;;;;;;5146569;27;12505;-84
2021/12/20 20:23:09;;;;;;;;;104.00;91.25;;;;;;;;5145715;27;12653;-83
2021/12/20 20:25:34;;;;;;;;;101.75;88.25;;;;;;;;5148970;27;10030;-84
2021/12/20 20:28:00;;;;;;;;;105.25;92.25;;;;;;;;5148237;27;12268;-82
2021/12/20 20:30:29;;;;;;;;;103.75;84.50;;;;;;;;5142924;27;11949;-85
2021/12/20 20:32:54;;;;;;;;;103.00;87.00;;;;;;;;5138981;27;12666;-85
2021/12/20 20:35:20;;;;;;;;;101.50;84.75;;;;;;;;5137789;27;12335;-85
2021/12/20 20:37:45;;;;;;;;;97.50;83.75;;;;;;;;5141043;27;10885;-86
2021/12/20 20:40:14;;;;;;;;;106.25;95.00;;;;;;;;5141322;27;24334;-84
2021/12/20 20:42:39;;;;;;;;;102.50;90.75;;;;;;;;5137373;27;25250;-88
2021/12/20 20:45:05;;;;;;;;;97.25;84.00;;;;;;;;5145723;27;11631;-94
2021/12/20 20:47:31;;;;;;;;;100.50;87.00;;;;;;;;5145775;27;25823;-91
2021/12/20 20:49:56;;;;;;;;;107.25;97.00;;;;;;;;5146247;27;25581;-95
2021/12/20 20:52:21;;;;;;;;;103.25;93.50;;;;;;;;5145434;27;14142;-92
2021/12/20 20:54:47;;;;;;;;;101.75;88.00;;;;;;;;5130885;27;12833;-88
2021/12/20 20:57:12;;;;;;;;;104.50;85.50;;;;;;;;5140008;27;12287;-80
2021/12/20 20:59:38;;;;;;;;;99.25;81.25;;;;;;;;5131875;27;11280;-84
2021/12/20 21:02:06;;;;;;;;;101.75;90.00;;;;;;;;5117922;27;23620;-84
2021/12/20 21:04:33;;;;;;;;;108.25;94.50;;;;;;;;5117830;27;23540;-81
2021/12/20 21:07:04;;;;;;;;;107.00;95.50;;;;;;;;5120293;27;10550;-82
2021/12/20 21:09:29;;;;;;;;;109.00;96.75;;;;;;;;5121447;28;10731;-83
2021/12/20 21:11:55;;;;;;;;;105.00;93.00;;;;;;;;5120526;28;10924;-82
2021/12/20 21:14:21;;;;;;;;;110.50;96.50;;;;;;;;5127732;27;11576;-81
2021/12/20 21:16:47;;;;;;;;;104.00;92.00;;;;;;;;5142239;27;12533;-81
2021/12/20 21:19:13;;;;;;;;;104.25;95.00;;;;;;;;5141768;27;13718;-83
2021/12/20 21:21:39;;;;;;;;;112.25;99.25;;;;;;;;5141908;27;10541;-82
2021/12/20 21:24:05;;;;;;;;;105.50;92.75;;;;;;;;5142221;27;12287;-82
2021/12/20 21:26:31;;;;;;;;;110.75;101.00;;;;;;;;5142612;27;12372;-83
2021/12/20 21:28:56;;;;;;;;;110.75;101.50;;;;;;;;5142018;27;23464;-85
2021/12/20 21:31:22;;;;;;;;;122.50;105.75;;;;;;;;5142656;27;8824;-83
2021/12/20 21:33:47;;;;;;;;;106.75;99.50;;;;;;;;5140393;27;13854;-84
2021/12/20 21:36:12;;;;;;;;;109.25;101.00;;;;;;;;5139313;27;25426;-83
2021/12/20 21:38:38;;;;;;;;;106.00;94.00;;;;;;;;5140877;27;24546;-83
2021/12/20 21:41:04;;;;;;;;;106.50;94.25;;;;;;;;5140771;27;23985;-84
2021/12/20 21:43:29;;;;;;;;;119.00;109.75;;;;;;;;5142598;27;8803;-83
2021/12/20 21:45:57;;;;;;;;;112.00;104.75;;;;;;;;5141891;27;23333;-86
2021/12/20 21:48:23;;;;;;;;;110.50;101.25;;;;;;;;5142769;27;9107;-86
2021/12/20 21:50:48;;;;;;;;;117.00;103.00;;;;;;;;5143540;27;10480;-86
2021/12/20 21:53:13;;;;;;;;;119.00;100.50;;;;;;;;5142492;27;11699;-85
2021/12/20 21:55:38;;;;;;;;;115.00;102.75;;;;;;;;5141414;27;11584;-85
2021/12/20 21:58:04;;;;;;;;;115.25;103.75;;;;;;;;5146003;27;11809;-89
2021/12/20 22:00:29;;;;;;;;;126.50;108.75;;;;;;;;5147443;27;9748;-90
2021/12/20 22:02:55;;;;;;;;;125.00;110.50;;;;;;;;5145673;27;12720;-89
2021/12/20 22:05:23;;;;;;;;;121.25;108.75;;;;;;;;5143782;27;12931;-88
2021/12/20 22:07:48;;;;;;;;;115.25;106.25;;;;;;;;5141762;27;12419;-86
2021/12/20 22:10:14;;;;;;;;;114.00;99.25;;;;;;;;5142482;27;12236;-87
2021/12/20 22:12:39;;;;;;;;;111.50;101.00;;;;;;;;5158017;27;23501;-88
2021/12/20 22:15:05;;;;;;;;;108.25;100.00;;;;;;;;5161287;27;23536;-89
2021/12/20 22:17:30;;;;;;;;;123.50;113.75;;;;;;;;5158746;27;12266;-91
2021/12/20 22:19:57;;;;;;;;;119.75;107.25;;;;;;;;5159022;27;13499;-92
2021/12/20 22:22:22;;;;;;;;;121.75;105.25;;;;;;;;5162226;27;12755;-91
2021/12/20 22:24:47;;;;;;;;;123.25;111.75;;;;;;;;5165934;27;10628;-90
2021/12/20 22:27:12;;;;;;;;;116.50;108.25;;;;;;;;5167202;27;11437;-92
2021/12/20 22:29:38;;;;;;;;;108.50;100.50;;;;;;;;5163997;27;14469;-88
2021/12/20 22:32:03;;;;;;;;;127.75;114.75;;;;;;;;5165102;27;13297;-86
2021/12/20 22:34:29;;;;;;;;;115.50;101.50;;;;;;;;5158491;27;13309;-85
2021/12/20 22:36:59;;;;;;;;;98.25;80.50;;;;;;;;5163286;27;13842;-90
2021/12/20 22:39:25;;;;;;;;;113.00;106.50;;;;;;;;5165249;27;24286;-90
2021/12/20 22:41:50;;;;;;;;;117.25;108.75;;;;;;;;5078652;27;24235;-92
2021/12/20 22:44:15;;;;;;;;;117.25;104.75;;;;;;;;5123018;28;13628;-91
2021/12/20 22:46:41;;;;;;;;;106.25;98.00;;;;;;;;5103350;28;8774;-77
2021/12/20 22:49:06;;;;;;;;;116.25;104.75;;;;;;;;5099913;28;23943;-83
2021/12/20 22:51:34;;;;;;;;;110.75;100.00;;;;;;;;5098354;28;23456;-88
2021/12/20 22:54:00;;;;;;;;;108.50;101.25;;;;;;;;5100250;28;11536;-81
2021/12/20 22:56:25;;;;;;;;;109.75;99.50;;;;;;;;5100027;28;13467;-83
2021/12/20 22:58:50;;;;;;;;;120.00;108.00;;;;;;;;5100428;28;23404;-81
2021/12/20 23:01:16;;;;;;;;;109.50;99.50;;;;;;;;5099746;28;23624;-83
2021/12/20 23:03:41;;;;;;;;;111.25;101.75;;;;;;;;5099846;28;23323;-86
2021/12/20 23:06:07;;;;;;;;;108.00;99.75;;;;;;;;5100028;28;24829;-82
2021/12/20 23:08:32;;;;;;;;;115.75;108.75;;;;;;;;5099737;28;23393;-82
2021/12/20 23:10:59;;;;;;;;;111.00;97.50;;;;;;;;5099474;28;23441;-81
2021/12/20 23:13:27;;;;;;;;;110.00;104.75;;;;;;;;5099182;28;24094;-81
2021/12/20 23:15:57;;;;;;;;;106.00;93.50;;;;;;;;5099313;28;23715;-81
2021/12/20 23:18:23;;;;;;;;;105.50;92.75;;;;;;;;5099703;28;23928;-82
2021/12/20 23:20:48;;;;;;;;;117.75;105.50;;;;;;;;5098928;28;10388;-81
2021/12/20 23:23:14;;;;;;;;;107.50;94.50;;;;;;;;5099169;28;23362;-81
2021/12/20 23:25:41;;;;;;;;;116.25;102.50;;;;;;;;5115203;28;24713;-80
2021/12/20 23:28:12;;;;;;;;;107.50;96.75;;;;;;;;5098779;28;25095;-80
2021/12/20 23:30:38;;;;;;;;;110.25;102.00;;;;;;;;5098881;28;23723;-81
2021/12/20 23:33:03;;;;;;;;;108.25;101.75;;;;;;;;5098636;28;23557;-80
2021/12/20 23:35:28;;;;;;;;;114.00;101.00;;;;;;;;5099441;28;14415;-81
2021/12/20 23:37:55;;;;;;;;;105.75;93.50;;;;;;;;5099337;28;13339;-80
2021/12/20 23:40:24;;;;;;;;;114.75;99.50;;;;;;;;5099298;28;23833;-81
2021/12/20 23:43:00;;;;;;;;;109.50;100.75;;;;;;;;5099977;28;9909;-81
2021/12/20 23:45:29;;;;;;;;;111.75;101.25;;;;;;;;5099004;28;23866;-81
2021/12/20 23:47:54;;;;;;;;;123.00;107.25;;;;;;;;5115326;28;14417;-81
2021/12/20 23:50:20;;;;;;;;;119.25;107.25;;;;;;;;5098169;28;14779;-81
2021/12/20 23:52:45;;;;;;;;;112.00;99.50;;;;;;;;5099281;28;10382;-81
2021/12/20 23:55:10;;;;;;;;;119.75;102.50;;;;;;;;5098930;28;23562;-81
2021/12/20 23:57:36;;;;;;;;;119.00;103.75;;;;;;;;5099074;28;23424;-81
